Tiempo atmosférico en la estación meteorológica de Ibias, San Antolin, Asturias (762 m.)



Fecha
DESCASC
Temp. máxima en grados centígrados (hora)
DESCASC
Temp. mínima en grados centígrados (hora)
DESCASC
Temp. media en grados centígrados
DESCASC
Racha de viento máxima en m/sg (hora)
DESCASC
Velocidad máxima media en intervalos de 10 minutos(hora)
DESCASC
Precipitaciones diarias en mm
DESCASC
Precipitaciones de 00:00 a 06:00 en mm
DESCASC
Precipitaciones de 06:00 a 12:00 en mm
DESCASC
Precipitaciones de 12:00 a 18:00 en mm
DESCASC
Precipitaciones de 18:00 a 24:00 en mm
DESCASC
18-04-2019 14.5 (14:40) 5.7 (08:30) 10.1 8.89 (14:50) 6.11 (00:10) 7.2 4.4 0 2.8 0
17-04-2019 17.5 (15:50) 8.1 (23:59) 12.8 14.72 (15:50) 9.17 (19:40) 9.6 0 0 0 9.6
16-04-2019 17.8 (16:50) 4.4 (00:00) 11.1 8.61 (17:10) 5 (00:20) 0 0 0 0 0
15-04-2019 15.7 (07:50) 5.9 (00:00) 10.8 21.39 (13:10) 12.78 (13:10) 16.8 0 9.6 7 0.2
14-04-2019 19.6 (17:30) 11.3 (00:00) 15.5 9.17 (12:40) 6.39 (01:50) 0 0 0 0 0
13-04-2019 18.9 (14:00) 7.1 (00:00) 13 11.39 (15:50) 7.78 (21:40) 0 0 0 0 0
12-04-2019 17.6 (17:10) 0.1 (00:00) 8.9 7.22 (17:50) 3.89 (19:50) 0 0 0 0 0
11-04-2019 11.8 (14:10) 3 (00:00) 7.4 7.78 (13:20) 4.17 (16:20) 0 0 0 0 0
10-04-2019 9.8 (15:10) 4.5 (00:00) 7.2 15 (03:50) 9.44 (03:50) 10.8 3.8 5.8 1 0.2
09-04-2019 8.1 (13:50) 3.4 (00:00) 5.8 15.83 (14:40) 9.72 (17:40) 23.2 3.2 3.2 4.4 12.4
08-04-2019 10.2 (15:20) 4.6 (00:00) 7.4 22.22 (20:10) 13.61 (20:10) 8.2 4.2 0.4 1.8 1.8
07-04-2019 9.4 (14:40) 1.9 (00:00) 5.6 12.78 (16:20) 7.78 (16:30) 12 0 0 1.8 10.2
06-04-2019 4.6 (11:40) 1.2 (00:00) 2.9 14.17 (11:50) 9.72 (16:00) 15.2 3 1.8 8.8 1.6
05-04-2019 7.1 (15:10) 0.7 (00:00) 3.9 16.94 (15:50) 10.28 (14:40) 6.6 3 0.8 1.8 1
04-04-2019 5.7 (13:30) 0.8 (00:00) 3.2 15 (19:40) 8.61 (14:30) 4.6 0 0 1 3.6
03-04-2019 6 (13:40) 0.7 (00:00) 3.3 9.44 (14:20) 5.83 (08:30) 5.6 0.6 0.6 3 1.4
02-04-2019 13.6 (16:30) 4.1 (00:00) 8.9 7.5 (15:30) 4.44 (16:40) 0 0 0 0 0
01-04-2019 18.1 (17:00) 7.3 (00:00) 12.7 8.33 (15:10) 4.44 (14:50) 0 0 0 0 0
31-03-2019 18.7 (17:30) 7.8 (00:00) 13.3 13.61 (14:50) 6.39 (18:00) 0 0 0 0 0
30-03-2019 17 (12:00) 7.8 (00:00) 12.4 11.11 (15:30) 5.83 (15:30) 0 0 0 0 0
29-03-2019 19.9 (15:40) 4.8 (00:00) 12.3 8.06 (14:00) 5 (17:30) 0 0 0 0 0
28-03-2019 18.9 (14:50) 5.5 (00:00) 12.2 8.33 (15:40) 3.89 (15:50) 0 0 0 0 0
27-03-2019 18.6 (14:50) 3.3 (00:00) 11 9.72 (15:40) 6.11 (17:50) 0 0 0 0 0
26-03-2019 16.7 (15:50) 3.1 (00:00) 9.9 12.5 (03:40) 8.33 (03:10) 0 0 0 0 0
25-03-2019 16 (15:40) 4.3 (00:00) 10.2 13.06 (18:30) 7.78 (19:20) 0 0 0 0 0
24-03-2019 19.9 (15:00) 7.6 (00:00) 13.7 10.83 (19:10) 6.67 (21:30) 0 0 0 0 0
23-03-2019 20.3 (16:20) 5.4 (00:00) 12.8 8.61 (17:20) 4.17 (17:20) 0 0 0 0 0
22-03-2019 18.3 (17:20) 5.9 (00:00) 12.1 9.17 (13:20) 4.17 (12:30) 0 0 0 0 0
21-03-2019 16.2 (16:20) 3.2 (00:00) 9.7 6.94 (12:40) 3.89 (13:10) 0 0 0 0 0

Gráficas

Temp. máximas Temp. mínimas Temp. medias Precipitaciones Rachas de viento máximas Velocidades máximas media en intervalos de 10 minutos

Datos horarios

Fecha y hora oficial Temperatura (ºC) Velocidad del viento (km/h) Dirección del viento Racha (km/h) Dirección de racha Precipitación (mm) Presión (hPa) Tendencia (hPa) Humedad (%)
2019-04-19 23:00:00 12 14 Nordeste 29 Nordeste 0 -- -- 83
2019-04-19 22:00:00 12.1 14 Nordeste 24 Nordeste 0 -- -- 83
2019-04-19 21:00:00 12.8 13 Nordeste 39 Nordeste 0 -- -- 80
2019-04-19 20:00:00 14.3 15 Nordeste 39 Nordeste 0 -- -- 74
2019-04-19 19:00:00 14.7 12 Nordeste 33 Nordeste 0 -- -- 74
2019-04-19 18:00:00 16.9 10 Nordeste 27 Nordeste 0 -- -- 68
2019-04-19 17:00:00 17.5 8 Norte 22 Norte 0 -- -- 65
2019-04-19 16:00:00 17.3 9 Nordeste 24 Nordeste 0 -- -- 65
2019-04-19 15:00:00 16.8 11 Nordeste 25 Nordeste 0 -- -- 68
2019-04-19 14:00:00 15 9 Nordeste 18 Nordeste 0 -- -- 71
2019-04-19 13:00:00 14.8 5 Este 24 Este 0 -- -- 72
2019-04-19 12:00:00 14 14 Nordeste 28 Este 0 -- -- 76
2019-04-19 11:00:00 11.7 11 Este 25 Nordeste 0 -- -- 87
2019-04-19 10:00:00 10.2 12 Nordeste 23 Nordeste 0 -- -- 95
2019-04-19 09:00:00 8.5 15 Nordeste 28 Nordeste 0.2 -- -- 96
2019-04-19 08:00:00 8.6 16 Nordeste 27 Nordeste 0.2 -- -- 95
2019-04-19 07:00:00 8.4 13 Nordeste 24 Nordeste 0 -- -- 96
2019-04-19 06:00:00 8.6 9 Nordeste 31 Nordeste 0.2 -- -- 94
2019-04-19 05:00:00 8.4 14 Nordeste 24 Nordeste 0 -- -- 93
2019-04-19 04:00:00 8.1 11 Nordeste 19 Nordeste 0 -- -- 95
2019-04-19 03:00:00 7.9 5 Nordeste 13 Nordeste 0 -- -- 94
2019-04-19 02:00:00 7.9 10 Nordeste 17 Nordeste 0 -- -- 94
2019-04-19 01:00:00 8.2 3 Nordeste 16 Norte 0 -- -- 91
2019-04-19 00:00:00 8.5 3 Nordeste 15 Norte 0 -- -- 90
2019-04-18 23:00:00 8.6 10 Nordeste 21 Nordeste 0 -- -- 88
2019-04-18 22:00:00 8.9 13 Nordeste 27 Nordeste 0 -- -- 85
2019-04-18 21:00:00 9.2 14 Nordeste 23 Nordeste 0 -- -- 86
2019-04-18 20:00:00 9.5 13 Nordeste 22 Nordeste 0 -- -- 85
2019-04-18 19:00:00 9.7 13 Nordeste 29 Norte 0 -- -- 84
2019-04-18 18:00:00 11.4 6 Nordeste 21 Nordeste 0 -- -- 86
2019-04-18 17:00:00 11.2 4 Este 21 Nordeste 0.6 -- -- 89
2019-04-18 16:00:00 12 6 Nordeste 25 Este 1.6 -- -- 88
2019-04-18 15:00:00 12.3 15 Nordeste 32 Este 0.4 -- -- 77
2019-04-18 14:00:00 14 10 Este 25 Este 0.2 -- -- 70
2019-04-18 13:00:00 13.1 9 Este 15 Nordeste 0 -- -- 78
2019-04-18 12:00:00 12.1 6 Nordeste 13 Oeste 0 -- -- 87
2019-04-18 11:00:00 10.6 5 Este 9 Nordeste 0 -- -- 89
2019-04-18 10:00:00 8.7 0 Calma 11 Este 0 -- -- 91
2019-04-18 09:00:00 7 4 Este 8 Oeste 0 -- -- 93
2019-04-18 08:00:00 6.9 2 Sur 10 Este 0 -- -- 87
2019-04-18 07:00:00 7.1 8 Sudeste 14 Sudeste 0 -- -- 88
2019-04-18 06:00:00 7.3 9 Sudeste 18 Sudeste 0 -- -- 86
2019-04-18 05:00:00 7.3 11 Sudeste 14 Sudeste 0 -- -- 89
2019-04-18 04:00:00 7.6 7 Este 13 Sudeste 0.4 -- -- 96
2019-04-18 03:00:00 7.5 6 Sudeste 8 Este 1.2 -- -- 97
2019-04-18 02:00:00 7.7 2 Oeste 9 Oeste 1.4 -- -- 97
2019-04-18 01:00:00 7.8 2 Sudeste 31 Oeste 1.4 -- -- 97
2019-04-18 00:00:00 8.1 24 Oeste 45 Oeste 2 -- -- 96
2019-04-17 23:00:00 9 12 Oeste 16 Noroeste 1.2 -- -- 97
2019-04-17 22:00:00 9.4 7 Noroeste 17 Este 2.6 -- -- 96
2019-04-17 21:00:00 10.1 5 Nordeste 17 Oeste 3.2 -- -- 94
2019-04-17 20:00:00 10.8 4 Norte 46 Oeste 0.6 -- -- 91
2019-04-17 19:00:00 16.8 13 Sudeste 34 Sur 0 -- -- 42
2019-04-17 18:00:00 17.1 13 Sudeste 39 Sudoeste 0 -- -- 44
2019-04-17 17:00:00 17 24 Sur 49 Sur 0 -- -- 42
2019-04-17 16:00:00 17.3 26 Sur 53 Sur 0 -- -- 43
2019-04-17 15:00:00 16.6 24 Sur 48 Sur 0 -- -- 45
2019-04-17 14:00:00 16.3 25 Sur 50 Sur 0 -- -- 45
2019-04-17 13:00:00 16.1 19 Sur 39 Sudeste 0 -- -- 46
2019-04-17 12:00:00 15.7 22 Sur 49 Sudeste 0 -- -- 48
2019-04-17 11:00:00 15.1 17 Sur 31 Sur 0 -- -- 50
2019-04-17 10:00:00 14 4 Sur 22 Sudoeste 0 -- -- 55
2019-04-17 09:00:00 13.4 9 Sur 33 Sudoeste 0 -- -- 53
2019-04-17 08:00:00 13.6 18 Sur 37 Sudeste 0 -- -- 50
2019-04-17 07:00:00 14.4 21 Sur 41 Sudeste 0 -- -- 48
2019-04-17 06:00:00 13.5 13 Sudeste 26 Sur 0 -- -- 52
2019-04-17 05:00:00 12.5 8 Oeste 11 Oeste 0 -- -- 55
2019-04-17 04:00:00 12.8 6 Sudeste 13 Sudeste 0 -- -- 53
2019-04-17 03:00:00 11.3 8 Nordeste 13 Nordeste 0 -- -- 67
2019-04-17 02:00:00 12.2 3 Sur 13 Sudeste 0 -- -- 60
2019-04-17 01:00:00 12.2 5 Sudeste 15 Sudeste 0 -- -- 56
2019-04-17 00:00:00 12.1 4 Este 7 Este 0 -- -- 68
2019-04-16 23:00:00 12.5 0 Calma 7 Nordeste 0 -- -- 63
2019-04-16 22:00:00 13.1 0 Calma 16 Sur 0 -- -- 63
2019-04-16 21:00:00 15.2 12 Sur 19 Sur 0 -- -- 45
2019-04-16 20:00:00 16.4 13 Sur 22 Sudoeste 0 -- -- 43
2019-04-16 19:00:00 17.3 9 Sudeste 25 Este 0 -- -- 41
2019-04-16 18:00:00 17.6 15 Sudeste 31 Este 0 -- -- 40
2019-04-16 17:00:00 17.5 18 Este 27 Este 0 -- -- 40
2019-04-16 16:00:00 17.1 8 Este 17 Nordeste 0 -- -- 43
2019-04-16 15:00:00 16.1 5 Este 13 Este 0 -- -- 54
2019-04-16 14:00:00 14 3 Este 18 Norte 0 -- -- 61
2019-04-16 13:00:00 13.5 4 Nordeste 12 Nordeste 0 -- -- 67
2019-04-16 12:00:00 11.7 3 Este 15 Oeste 0 -- -- 79
2019-04-16 11:00:00 9.4 8 Noroeste 17 Noroeste 0 -- -- 79
2019-04-16 10:00:00 7.9 8 Noroeste 11 Noroeste 0 -- -- 79
2019-04-16 09:00:00 6.4 6 Sudeste 15 Sudeste 0 -- -- 78
2019-04-16 08:00:00 5.3 13 Sudeste 22 Sudeste 0 -- -- 82
2019-04-16 07:00:00 4.9 8 Sudeste 14 Sudeste 0 -- -- 85
2019-04-16 06:00:00 4.8 3 Nordeste 6 Oeste 0 -- -- 88
2019-04-16 05:00:00 4.6 6 Oeste 8 Oeste 0 -- -- 90
2019-04-16 04:00:00 5.4 0 Calma 10 Sudeste 0 -- -- 89
2019-04-16 03:00:00 5.8 2 Este 11 Sudoeste 0 -- -- 90
2019-04-16 02:00:00 5.4 5 Oeste 9 Sudoeste 0 -- -- 90
2019-04-16 01:00:00 5.4 9 Sudoeste 20 Sudoeste 0 -- -- 90
2019-04-16 00:00:00 5.9 18 Sudoeste 24 Sudoeste 0 -- -- 89
2019-04-15 23:00:00 6.4 12 Oeste 23 Sudoeste 0 -- -- 89
2019-04-15 22:00:00 7.5 2 Sudoeste 17 Oeste 0 -- -- 88
2019-04-15 21:00:00 8.8 14 Oeste 29 Oeste 0 -- -- 80
2019-04-15 20:00:00 9.8 22 Oeste 50 Oeste 0 -- -- 75
2019-04-15 19:00:00 11.1 22 Oeste 41 Oeste 0.2 -- -- 76
2019-04-15 18:00:00 9.9 25 Sudoeste 48 Oeste 0.2 -- -- 86
2019-04-15 17:00:00 10.6 18 Sudoeste 48 Sudoeste 0 -- -- 83
2019-04-15 16:00:00 9 22 Sudoeste 39 Sudoeste 0.4 -- -- 87
2019-04-15 15:00:00 8.9 30 Sudoeste 62 Sudoeste 4.4 -- -- 92
2019-04-15 14:00:00 9.8 35 Sudoeste 77 Oeste 2 -- -- 92
2019-04-15 13:00:00 14.7 30 Sudoeste 57 Sudoeste 0 -- -- 65
2019-04-15 12:00:00 13.7 15 Sudoeste 38 Sudoeste 0 -- -- 82
2019-04-15 11:00:00 12.1 26 Sudoeste 44 Sudoeste 1.8 -- -- 92
2019-04-15 10:00:00 11.4 26 Sudoeste 50 Sudoeste 6.6 -- -- 94
2019-04-15 09:00:00 12.3 24 Oeste 47 Sudoeste 1.2 -- -- 90
2019-04-15 08:00:00 15.6 19 Sur 36 Sur 0 -- -- 65
2019-04-15 07:00:00 15.5 11 Sur 30 Sur 0 -- -- 64
2019-04-15 06:00:00 15.3 14 Sur 21 Sur 0 -- -- 65
2019-04-15 05:00:00 15.1 8 Sur 15 Sur 0 -- -- 66
2019-04-15 04:00:00 15.2 7 Sur 19 Sur 0 -- -- 68
2019-04-15 03:00:00 15.4 15 Sur 25 Sudoeste 0 -- -- 66
2019-04-15 02:00:00 14.4 10 Sudoeste 16 Sudoeste 0 -- -- 72
2019-04-15 01:00:00 14.5 4 Sur 10 Sur 0 -- -- 80
2019-04-15 00:00:00 14.3 8 Oeste 11 Sudoeste 0 -- -- 80
2019-04-14 23:00:00 15.3 2 Sur 6 Sudeste 0 -- -- 77
2019-04-14 22:00:00 15.5 0 Calma 8 Sudoeste 0 -- -- 75
2019-04-14 21:00:00 15.8 11 Sudoeste 26 Sudoeste 0 -- -- 74
2019-04-14 20:00:00 17.6 17 Sudoeste 27 Oeste 0 -- -- 66
2019-04-14 19:00:00 18.9 14 Oeste 24 Oeste 0 -- -- 61
2019-04-14 18:00:00 19.2 13 Sudoeste 20 Oeste 0 -- -- 60
2019-04-14 17:00:00 19.2 6 Sudoeste 17 Sudoeste 0 -- -- 60
2019-04-14 16:00:00 17.5 8 Sudoeste 21 Oeste 0 -- -- 64
2019-04-14 15:00:00 16.9 13 Sudoeste 25 Oeste 0 -- -- 69
2019-04-14 14:00:00 16.8 7 Oeste 24 Sudoeste 0 -- -- 69
2019-04-14 13:00:00 16.4 11 Oeste 33 Oeste 0 -- -- 69
2019-04-14 12:00:00 15.3 12 Sudoeste 27 Sudoeste 0 -- -- 74
2019-04-14 11:00:00 13.5 10 Sudoeste 20 Sudoeste 0 -- -- 84
2019-04-14 10:00:00 12.8 3 Este 10 Sudeste 0 -- -- 87
2019-04-14 09:00:00 12.4 0 Calma 8 Oeste 0 -- -- 86
2019-04-14 08:00:00 12.3 0 Calma 13 Sudoeste 0 -- -- 86
2019-04-14 07:00:00 12.3 9 Sudoeste 15 Oeste 0 -- -- 86
2019-04-14 06:00:00 12.2 2 Sudoeste 19 Sudoeste 0 -- -- 86
2019-04-14 05:00:00 12 7 Sudoeste 18 Oeste 0 -- -- 87
2019-04-14 04:00:00 11.6 11 Sudoeste 23 Oeste 0 -- -- 89
2019-04-14 03:00:00 11.7 13 Sudoeste 32 Sudoeste 0 -- -- 89
2019-04-14 02:00:00 11.5 19 Sudoeste 31 Sudoeste 0 -- -- 92
2019-04-14 01:00:00 11.5 19 Sudoeste 29 Sudoeste 0 -- -- 92
2019-04-14 00:00:00 12.1 14 Oeste 25 Oeste 0 -- -- 85
2019-04-13 23:00:00 12.9 17 Sudoeste 29 Oeste 0 -- -- 76
2019-04-13 22:00:00 13.5 16 Oeste 37 Sudoeste 0 -- -- 70
2019-04-13 21:00:00 14.1 22 Oeste 35 Oeste 0 -- -- 68
2019-04-13 20:00:00 15.7 12 Oeste 24 Oeste 0 -- -- 58
2019-04-13 19:00:00 16.6 9 Oeste 32 Oeste 0 -- -- 54
2019-04-13 18:00:00 16.7 11 Oeste 33 Sudoeste 0 -- -- 50
2019-04-13 17:00:00 17.7 17 Sudoeste 32 Oeste 0 -- -- 42
2019-04-13 16:00:00 18 21 Oeste 41 Oeste 0 -- -- 40
2019-04-13 15:00:00 18.7 17 Sudoeste 32 Oeste 0 -- -- 41
2019-04-13 14:00:00 18.9 16 Sudoeste 26 Oeste 0 -- -- 39
2019-04-13 13:00:00 17.3 4 Este 14 Nordeste 0 -- -- 51
2019-04-13 12:00:00 15.1 6 Este 16 Noroeste 0 -- -- 61
2019-04-13 11:00:00 13.3 8 Noroeste 12 Noroeste 0 -- -- 61
2019-04-13 10:00:00 11 3 Oeste 12 Sur 0 -- -- 71
2019-04-13 09:00:00 9.8 9 Sudeste 14 Sudeste 0 -- -- 69
2019-04-13 08:00:00 7.9 9 Sudeste 13 Sudeste 0 -- -- 77
2019-04-13 07:00:00 7.5 4 Este 6 Este 0 -- -- 83
2019-04-13 06:00:00 7.7 0 Calma 6 Oeste 0 -- -- 84
2019-04-13 05:00:00 7.8 4 Oeste 7 Noroeste 0 -- -- 84
2019-04-13 04:00:00 8.2 0 Calma 6 Noroeste 0 -- -- 82
2019-04-13 03:00:00 7.7 4 Oeste 11 Noroeste 0 -- -- 86
2019-04-13 02:00:00 8.6 4 Sudeste 6 Sudeste 0 -- -- 81
2019-04-13 01:00:00 8.6 0 Calma 12 Norte 0 -- -- 79
2019-04-13 00:00:00 9.1 8 Norte 13 Norte 0 -- -- 78
2019-04-12 23:00:00 10.4 0 Calma 8 Norte 0 -- -- 79
2019-04-12 22:00:00 11.3 3 Noroeste 9 Noroeste 0 -- -- 71
2019-04-12 21:00:00 12.5 6 Noroeste 16 Norte 0 -- -- 67
2019-04-12 20:00:00 16.2 11 Noroeste 22 Noroeste 0 -- -- 48
2019-04-12 19:00:00 17.3 12 Oeste 21 Noroeste 0 -- -- 39
2019-04-12 18:00:00 17.6 13 Oeste 26 Noroeste 0 -- -- 42
2019-04-12 17:00:00 17.5 7 Oeste 26 Nordeste 0 -- -- 42
2019-04-12 16:00:00 16.6 8 Noroeste 24 Noroeste 0 -- -- 45
2019-04-12 15:00:00 15.2 12 Noroeste 21 Oeste 0 -- -- 50
2019-04-12 14:00:00 13.5 7 Noroeste 21 Sudeste 0 -- -- 54
2019-04-12 13:00:00 11 6 Este 13 Este 0 -- -- 73
2019-04-12 12:00:00 9.8 5 Nordeste 12 Este 0 -- -- 78
2019-04-12 11:00:00 6.2 2 Sudoeste 9 Oeste 0 -- -- 95
2019-04-12 10:00:00 4.3 5 Sudeste 9 Sudeste 0 -- -- 95
2019-04-12 09:00:00 1 0 Calma 9 Este 0 -- -- 97
2019-04-12 08:00:00 0.5 2 Nordeste 10 Oeste 0 -- -- 97
2019-04-12 07:00:00 1.8 0 Calma 7 Este 0 -- -- 94
2019-04-12 06:00:00 2.4 5 Este 13 Sudeste 0 -- -- 97
2019-04-12 05:00:00 2.8 7 Este 10 Sudeste 0 -- -- 96
2019-04-12 04:00:00 3.6 6 Este 9 Sudeste 0 -- -- 93
2019-04-12 03:00:00 4.5 3 Nordeste 12 Sudeste 0 -- -- 90
2019-04-12 02:00:00 5 8 Sudeste 13 Sudeste 0 -- -- 88
2019-04-12 01:00:00 5.4 9 Sudeste 13 Sudeste 0 -- -- 88
2019-04-12 00:00:00 5.5 7 Nordeste 21 Este 0 -- -- 88
2019-04-11 23:00:00 6.1 9 Nordeste 19 Nordeste 0 -- -- 84
2019-04-11 22:00:00 6.5 10 Nordeste 18 Norte 0 -- -- 84
2019-04-11 21:00:00 7.7 4 Noroeste 18 Norte 0 -- -- 82
2019-04-11 20:00:00 9.6 9 Norte 15 Norte 0 -- -- 73
2019-04-11 19:00:00 9.9 8 Nordeste 13 Nordeste 0 -- -- 69
2019-04-11 18:00:00 10.3 10 Nordeste 21 Este 0 -- -- 70
2019-04-11 17:00:00 10.1 6 Nordeste 25 Nordeste 0 -- -- 72
2019-04-11 16:00:00 11.2 9 Nordeste 27 Nordeste 0 -- -- 65
2019-04-11 15:00:00 10.8 11 Este 24 Nordeste 0 -- -- 63
2019-04-11 14:00:00 11.5 9 Nordeste 28 Nordeste 0 -- -- 66
2019-04-11 13:00:00 9.6 14 Este 24 Este 0 -- -- 82
2019-04-11 12:00:00 6.8 6 Este 14 Nordeste 0 -- -- 98
2019-04-11 11:00:00 4.5 0 Calma 7 Norte 0 -- -- 99
2019-04-11 10:00:00 3.5 0 Calma 8 Nordeste 0 -- -- 100
2019-04-11 09:00:00 3 4 Sudeste 9 Sudeste 0 -- -- 99
2019-04-11 08:00:00 3.2 4 Sudeste 11 Este 0 -- -- 99
2019-04-11 07:00:00 3.5 0 Calma 10 Nordeste 0 -- -- 99
2019-04-11 06:00:00 3.8 0 Calma 7 Sudeste 0 -- -- 98
2019-04-11 05:00:00 4.2 0 Calma 8 Este 0 -- -- 98
2019-04-11 04:00:00 4.2 0 Calma 9 Norte 0 -- -- 97
2019-04-11 03:00:00 3.9 7 Norte 9 Noroeste 0 -- -- 95
2019-04-11 02:00:00 4.8 8 Norte 11 Norte 0 -- -- 94
2019-04-11 01:00:00 5.4 6 Norte 12 Norte 0 -- -- 92
2019-04-11 00:00:00 5.7 6 Norte 11 Norte 0 -- -- 93
2019-04-10 23:00:00 6 5 Norte 19 Norte 0 -- -- 92
2019-04-10 22:00:00 6.2 10 Norte 20 Norte 0 -- -- 91
2019-04-10 21:00:00 6.7 6 Norte 15 Nordeste 0 -- -- 89
2019-04-10 20:00:00 7.7 5 Norte 17 Nordeste 0 -- -- 86
2019-04-10 19:00:00 8.2 9 Nordeste 20 Nordeste 0.2 -- -- 85
2019-04-10 18:00:00 8.5 8 Nordeste 23 Norte 0 -- -- 83
2019-04-10 17:00:00 8.3 12 Nordeste 24 Nordeste 0 -- -- 86
2019-04-10 16:00:00 8.6 5 Este 26 Este 0 -- -- 88
2019-04-10 15:00:00 9.3 7 Nordeste 22 Nordeste 0 -- -- 93
2019-04-10 14:00:00 8 7 Norte 24 Norte 0 -- -- 95
2019-04-10 13:00:00 7.3 7 Norte 18 Este 1 -- -- 98
2019-04-10 12:00:00 6.5 9 Oeste 23 Oeste 1.4 -- -- 98
2019-04-10 11:00:00 5.9 18 Oeste 27 Oeste 1.2 -- -- 98
2019-04-10 10:00:00 5.7 21 Oeste 32 Oeste 0 -- -- 97
2019-04-10 09:00:00 5.3 15 Oeste 33 Oeste 0.4 -- -- 97
2019-04-10 08:00:00 4.9 19 Oeste 34 Oeste 0.8 -- -- 96
2019-04-10 07:00:00 4.7 27 Oeste 41 Oeste 2 -- -- 95
2019-04-10 06:00:00 4.5 22 Oeste 52 Oeste 2.4 -- -- 96
2019-04-10 05:00:00 4.7 21 Oeste 44 Sudoeste 0.6 -- -- 95
2019-04-10 04:00:00 4.6 31 Sudoeste 54 Oeste 0 -- -- 94
2019-04-10 03:00:00 4.8 22 Sudoeste 45 Oeste 0.4 -- -- 94
2019-04-10 02:00:00 4.9 13 Oeste 30 Sudoeste 0.4 -- -- 94
2019-04-10 01:00:00 4.9 19 Oeste 43 Sudoeste 0 -- -- 92
2019-04-10 00:00:00 4.6 21 Sudoeste 39 Sudoeste 0.8 -- -- 94
2019-04-09 23:00:00 4.7 26 Sudoeste 49 Oeste 0.6 -- -- 93
2019-04-09 22:00:00 5.2 21 Oeste 45 Sudoeste 1.6 -- -- 93
2019-04-09 21:00:00 5.4 27 Sudoeste 57 Sudoeste 3.6 -- -- 92
2019-04-09 20:00:00 5.6 7 Noroeste 39 Sudoeste 3.6 -- -- 93
2019-04-09 19:00:00 5.8 21 Sudoeste 50 Sudoeste 2.2 -- -- 93
2019-04-09 18:00:00 6.1 33 Sudoeste 53 Oeste 1 -- -- 90
2019-04-09 17:00:00 7.2 22 Sudoeste 46 Sudoeste 0 -- -- 81
2019-04-09 16:00:00 7.3 22 Sudoeste 44 Sudoeste 0 -- -- 87
2019-04-09 15:00:00 5.5 27 Sudoeste 57 Oeste 3.4 -- -- 91
2019-04-09 14:00:00 7.9 18 Sudoeste 38 Sudoeste 0 -- -- 80
2019-04-09 13:00:00 6.5 25 Sudoeste 40 Oeste 0 -- -- 87
2019-04-09 12:00:00 5 24 Sudoeste 39 Sudoeste 0.8 -- -- 92
2019-04-09 11:00:00 5.6 13 Sudoeste 35 Sudoeste 0 -- -- 88
2019-04-09 10:00:00 3.9 20 Sudoeste 40 Oeste 0 -- -- 91
2019-04-09 09:00:00 3.7 24 Sudoeste 38 Sudoeste 0.4 -- -- 91
2019-04-09 08:00:00 3.9 23 Sudoeste 37 Sudoeste 1.2 -- -- 90
2019-04-09 07:00:00 4.6 17 Oeste 37 Sudoeste 0.8 -- -- 88
2019-04-09 06:00:00 4.7 19 Sur 41 Sudoeste 0.6 -- -- 88
2019-04-09 05:00:00 5.1 25 Sudoeste 51 Sudoeste 0.2 -- -- 83
2019-04-09 04:00:00 5.4 22 Sudoeste 44 Sur 0.6 -- -- 84
2019-04-09 03:00:00 5.5 23 Sur 43 Sudoeste 0 -- -- 82
2019-04-09 02:00:00 5.3 26 Sur 42 Sur 0.4 -- -- 83
2019-04-09 01:00:00 5.2 13 Sur 40 Sudoeste 1.4 -- -- 88
2019-04-09 00:00:00 6 20 Sudoeste 38 Sur 0.4 -- -- 82
2019-04-08 23:00:00 5.7 15 Sur 31 Sur 0 -- -- 80
2019-04-08 22:00:00 5.4 11 Sur 26 Oeste 0.2 -- -- 87
2019-04-08 21:00:00 5.5 15 Sudoeste 80 Oeste 1.2 -- -- 90
2019-04-08 20:00:00 8.3 17 Sudoeste 36 Sudoeste 0 -- -- 66
2019-04-08 19:00:00 9.5 15 Sudoeste 65 Oeste 0 -- -- 68
2019-04-08 18:00:00 8.9 19 Sur 44 Sur 0 -- -- 73
2019-04-08 17:00:00 7.9 14 Sudoeste 42 Oeste 1.2 -- -- 83
2019-04-08 16:00:00 9 24 Sudoeste 62 Sudoeste 0.2 -- -- 70
2019-04-08 15:00:00 9.5 22 Sudoeste 56 Sudoeste 0.2 -- -- 72
2019-04-08 14:00:00 7.6 24 Sudoeste 42 Sudoeste 0.2 -- -- 86
2019-04-08 13:00:00 8.8 22 Sudoeste 47 Sudoeste 0 -- -- 64
2019-04-08 12:00:00 7.9 31 Sudoeste 55 Sudoeste 0 -- -- 74
2019-04-08 11:00:00 6.3 20 Sudoeste 36 Oeste 0 -- -- 81
2019-04-08 10:00:00 5.8 18 Sudoeste 32 Sudoeste 0 -- -- 82
2019-04-08 09:00:00 5 18 Sudoeste 31 Sudoeste 0 -- -- 86
2019-04-08 08:00:00 4.8 16 Sudoeste 35 Oeste 0.4 -- -- 90
2019-04-08 07:00:00 5.7 17 Sudoeste 54 Sudoeste 0 -- -- 91
2019-04-08 06:00:00 6.2 21 Sudoeste 44 Oeste 0.2 -- -- 92
2019-04-08 05:00:00 6.5 19 Oeste 40 Oeste 0.2 -- -- 93
2019-04-08 04:00:00 6.8 24 Oeste 47 Sudoeste 2 -- -- 91
2019-04-08 03:00:00 7.8 25 Sudoeste 43 Sudoeste 0 -- -- 88
2019-04-08 02:00:00 7.9 28 Sudoeste 47 Oeste 0 -- -- 89
2019-04-08 01:00:00 7 12 Sudoeste 30 Sur 1.8 -- -- 91
2019-04-08 00:00:00 6.1 10 Sur 25 Sudeste 1.2 -- -- 91
2019-04-07 23:00:00 7 18 Sur 42 Sur 0.8 -- -- 90
2019-04-07 22:00:00 6.7 11 Sur 29 Sur 0.6 -- -- 90
2019-04-07 21:00:00 5.7 16 Sur 32 Sudeste 2.2 -- -- 93
2019-04-07 20:00:00 5.1 15 Sudeste 24 Sudeste 2.4 -- -- 91
2019-04-07 19:00:00 5.3 15 Sudeste 23 Sudeste 3 -- -- 90
2019-04-07 18:00:00 6.2 9 Sur 23 Sudoeste 1 -- -- 84
2019-04-07 17:00:00 5.9 22 Sudoeste 46 Sudoeste 0.8 -- -- 83
2019-04-07 16:00:00 8.1 24 Sudoeste 44 Sur 0 -- -- 64
2019-04-07 15:00:00 8.8 23 Sudoeste 34 Sur 0 -- -- 60
2019-04-07 14:00:00 8.9 18 Sudoeste 36 Sur 0 -- -- 60
2019-04-07 13:00:00 7.4 16 Sudoeste 33 Sudoeste 0 -- -- 70
2019-04-07 12:00:00 6.8 11 Sudoeste 22 Sur 0 -- -- 75
2019-04-07 11:00:00 5.2 8 Sudoeste 29 Sudoeste 0 -- -- 81
2019-04-07 10:00:00 4.1 15 Sudoeste 33 Oeste 0 -- -- 83
2019-04-07 09:00:00 2.4 10 Sudoeste 17 Sudoeste 0 -- -- 89
2019-04-07 08:00:00 2.4 10 Sudoeste 33 Oeste 0 -- -- 92
2019-04-07 07:00:00 2.2 16 Sudoeste 24 Sudoeste 0 -- -- 93
2019-04-07 06:00:00 1.9 14 Sudoeste 28 Oeste 0 -- -- 93
2019-04-07 05:00:00 2.1 18 Oeste 27 Oeste 0 -- -- 92
2019-04-07 04:00:00 2.1 18 Sudoeste 36 Sudoeste 0 -- -- 93
2019-04-07 03:00:00 2.3 15 Oeste 31 Sudoeste 0 -- -- 95
2019-04-07 02:00:00 2.2 20 Sudoeste 35 Oeste 0 -- -- 95
2019-04-07 01:00:00 2.1 19 Sudoeste 27 Sudoeste 0 -- -- 96
2019-04-07 00:00:00 2 20 Sudoeste 38 Oeste 0.2 -- -- 96
2019-04-06 23:00:00 2.2 18 Oeste 36 Oeste 0.2 -- -- 94
2019-04-06 22:00:00 2.4 25 Sudoeste 32 Sudoeste 0 -- -- 92
2019-04-06 21:00:00 3.3 23 Sudoeste 50 Oeste 0 -- -- 87
2019-04-06 20:00:00 4.2 9 Noroeste 38 Oeste 0.2 -- -- 88
2019-04-06 19:00:00 2.5 20 Sudoeste 36 Sudoeste 1 -- -- 96
2019-04-06 18:00:00 1.4 21 Oeste 40 Oeste 2.6 -- -- 96
2019-04-06 17:00:00 2 21 Oeste 42 Oeste 3.6 -- -- 96
2019-04-06 16:00:00 4 35 Sudoeste 48 Sudoeste 0.2 -- -- 93
2019-04-06 15:00:00 3.1 30 Sudoeste 47 Oeste 1 -- -- 94
2019-04-06 14:00:00 4.3 29 Sudoeste 48 Sudoeste 0.4 -- -- 94
2019-04-06 13:00:00 3.3 26 Sudoeste 37 Oeste 1 -- -- 93
2019-04-06 12:00:00 3.2 26 Sudoeste 51 Sudoeste 0.2 -- -- 90
2019-04-06 11:00:00 3.6 26 Sudoeste 45 Sudoeste 0.2 -- -- 88
2019-04-06 10:00:00 2.8 20 Sur 38 Sur 0.4 -- -- 88
2019-04-06 09:00:00 2.2 21 Sur 42 Sur 1 -- -- 90
2019-04-06 08:00:00 3 24 Sur 46 Sur 0 -- -- 80
2019-04-06 07:00:00 2.8 28 Sur 49 Sur 0 -- -- 84
2019-04-06 06:00:00 2.1 19 Sudoeste 43 Sudoeste 0.8 -- -- 91
2019-04-06 05:00:00 2.3 22 Sur 40 Sur 0.4 -- -- 91
2019-04-06 04:00:00 2.1 19 Sur 48 Sudoeste 0.8 -- -- 91
2019-04-06 03:00:00 2.4 21 Sudoeste 36 Sudoeste 1 -- -- 92
2019-04-06 02:00:00 3.2 24 Sudoeste 42 Oeste 0 -- -- 87
2019-04-06 01:00:00 3.2 26 Sudoeste 41 Sudoeste 0 -- -- 86
2019-04-06 00:00:00 3.1 21 Sudoeste 35 Oeste 0.2 -- -- 91
2019-04-05 23:00:00 2.9 23 Sudoeste 33 Sudoeste 0 -- -- 93
2019-04-05 22:00:00 3.4 9 Oeste 26 Sudoeste 0 -- -- 92
2019-04-05 21:00:00 3.3 13 Sudoeste 25 Oeste 0 -- -- 92
2019-04-05 20:00:00 3.4 10 Oeste 37 Oeste 0.6 -- -- 92
2019-04-05 19:00:00 4.3 21 Sudoeste 37 Sudoeste 0.2 -- -- 87
2019-04-05 18:00:00 3.8 18 Oeste 41 Oeste 1.4 -- -- 92
2019-04-05 17:00:00 4.9 30 Sudoeste 45 Oeste 0 -- -- 79
2019-04-05 16:00:00 4.7 24 Sudoeste 61 Oeste 0.4 -- -- 91
2019-04-05 15:00:00 7 24 Sudoeste 54 Sudoeste 0 -- -- 64
2019-04-05 14:00:00 6.3 24 Sudoeste 44 Sudoeste 0 -- -- 66
2019-04-05 13:00:00 5.8 22 Sudoeste 44 Sur 0 -- -- 71
2019-04-05 12:00:00 4.3 15 Sudoeste 37 Sur 0 -- -- 73
2019-04-05 11:00:00 4.1 21 Sudoeste 40 Sudoeste 0 -- -- 81
2019-04-05 10:00:00 2.7 11 Sur 23 Sur 0 -- -- 87
2019-04-05 09:00:00 1.3 10 Sudoeste 32 Sudoeste 0 -- -- 92
2019-04-05 08:00:00 0.9 14 Sudoeste 28 Sudoeste 0 -- -- 95
2019-04-05 07:00:00 1 17 Sudoeste 33 Sudoeste 0.8 -- -- 96
2019-04-05 06:00:00 1.3 22 Sudoeste 27 Oeste 0.8 -- -- 95
2019-04-05 05:00:00 1.9 14 Sudoeste 25 Oeste 0 -- -- 93
2019-04-05 04:00:00 2 14 Sudoeste 36 Sudoeste 0 -- -- 93
2019-04-05 03:00:00 2.2 28 Sudoeste 45 Sudoeste 0 -- -- 89
2019-04-05 02:00:00 2.3 24 Sudoeste 41 Sudoeste 0.6 -- -- 95
2019-04-05 01:00:00 2.6 13 Sudoeste 18 Sudoeste 1.6 -- -- 94
2019-04-05 00:00:00 3.2 3 Oeste 19 Sur 0.4 -- -- 94
2019-04-04 23:00:00 3.3 13 Sudoeste 25 Sudoeste 1.4 -- -- 91
2019-04-04 22:00:00 3.8 10 Oeste 32 Sudoeste 0.6 -- -- 90
2019-04-04 21:00:00 4.3 15 Sudoeste 45 Sur 0.8 -- -- 85
2019-04-04 20:00:00 4.7 18 Sur 54 Oeste 0.2 -- -- 83
2019-04-04 19:00:00 4.9 19 Sudoeste 42 Sur 0.2 -- -- 82
2019-04-04 18:00:00 4.9 18 Sudoeste 36 Sudoeste 0.6 -- -- 85
2019-04-04 17:00:00 5.3 14 Sudoeste 50 Sudoeste 0.2 -- -- 82
2019-04-04 16:00:00 5.3 22 Sudoeste 51 Sur 0.2 -- -- 83
2019-04-04 15:00:00 5.3 24 Sudoeste 50 Sudoeste 0 -- -- 77
2019-04-04 14:00:00 5.5 23 Sudoeste 42 Oeste 0 -- -- 76
2019-04-04 13:00:00 5.4 15 Sur 36 Oeste 0 -- -- 75
2019-04-04 12:00:00 4.4 22 Sudoeste 37 Sudoeste 0 -- -- 79
2019-04-04 11:00:00 2.8 17 Sudoeste 40 Oeste 0 -- -- 89
2019-04-04 10:00:00 1.8 22 Sudoeste 31 Sudoeste 0 -- -- 94
2019-04-04 09:00:00 1.3 17 Sudoeste 29 Sudoeste 0 -- -- 91
2019-04-04 08:00:00 1.1 12 Sudoeste 23 Sudoeste 0 -- -- 93
2019-04-04 07:00:00 0.9 15 Sudoeste 27 Oeste 0 -- -- 93
2019-04-04 06:00:00 1 19 Sudoeste 26 Sudoeste 0 -- -- 94
2019-04-04 05:00:00 0.9 16 Sudoeste 27 Oeste 0 -- -- 95
2019-04-04 04:00:00 0.8 14 Sudoeste 27 Oeste 0 -- -- 95
2019-04-04 03:00:00 1.1 14 Oeste 28 Sudoeste 0 -- -- 93
2019-04-04 02:00:00 1.2 17 Sudoeste 30 Oeste 0 -- -- 92
2019-04-04 01:00:00 1.2 14 Sudoeste 19 Sudoeste 0 -- -- 93
2019-04-04 00:00:00 0.9 11 Oeste 18 Oeste 0 -- -- 95
2019-04-03 23:00:00 0.8 7 Oeste 13 Noroeste 0.2 -- -- 96
2019-04-03 22:00:00 0.7 6 Oeste 19 Oeste 0.4 -- -- 96
2019-04-03 21:00:00 1.2 9 Oeste 23 Norte 0 -- -- 94
2019-04-03 20:00:00 2.8 13 Oeste 27 Norte 0 -- -- 88
2019-04-03 19:00:00 2.2 11 Noroeste 28 Nordeste 0.8 -- -- 91
2019-04-03 18:00:00 3.3 7 Norte 22 Noroeste 0 -- -- 89
2019-04-03 17:00:00 3.1 7 Nordeste 22 Noroeste 1.6 -- -- 93
2019-04-03 16:00:00 4.8 10 Este 29 Oeste 0.2 -- -- 90
2019-04-03 15:00:00 3.7 5 Este 34 Noroeste 0.6 -- -- 91
2019-04-03 14:00:00 5.8 16 Oeste 27 Oeste 0 -- -- 83
2019-04-03 13:00:00 4.9 14 Noroeste 25 Noroeste 0.6 -- -- 91
2019-04-03 12:00:00 3.1 12 Oeste 22 Oeste 0.2 -- -- 94
2019-04-03 11:00:00 3.1 12 Oeste 25 Oeste 0 -- -- 92
2019-04-03 10:00:00 2.5 15 Oeste 24 Oeste 0 -- -- 93
2019-04-03 09:00:00 2 15 Oeste 31 Oeste 0.2 -- -- 96
2019-04-03 08:00:00 2.2 19 Oeste 28 Oeste 0.2 -- -- 94
2019-04-03 07:00:00 1.8 16 Oeste 24 Oeste 0 -- -- 95
2019-04-03 06:00:00 2.3 15 Oeste 24 Oeste 0.4 -- -- 96
2019-04-03 05:00:00 2.6 12 Oeste 24 Oeste 0 -- -- 94
2019-04-03 04:00:00 3.1 14 Oeste 21 Oeste 0.2 -- -- 94
2019-04-03 03:00:00 2.7 7 Oeste 10 Noroeste 0 -- -- 92
2019-04-03 02:00:00 3.5 4 Oeste 18 Oeste 0 -- -- 92
2019-04-03 01:00:00 3.8 11 Noroeste 21 Nordeste 0 -- -- 91
2019-04-03 00:00:00 4.8 0 Calma 17 Norte 0 -- -- 91
2019-04-02 23:00:00 5.2 6 Norte 21 Noroeste 0 -- -- 88
2019-04-02 22:00:00 5.7 6 Noroeste 16 Nordeste 0 -- -- 85
2019-04-02 21:00:00 6 7 Norte 22 Noroeste 0 -- -- 84
2019-04-02 20:00:00 7.3 5 Noroeste 20 Norte 0 -- -- 81
2019-04-02 19:00:00 8.7 8 Nordeste 26 Nordeste 0 -- -- 77
2019-04-02 18:00:00 11.1 8 Nordeste 21 Noroeste 0 -- -- 69
2019-04-02 17:00:00 11.8 10 Oeste 24 Oeste 0 -- -- 57
2019-04-02 16:00:00 12.1 13 Noroeste 27 Oeste 0 -- -- 55
2019-04-02 15:00:00 12 10 Noroeste 23 Noroeste 0 -- -- 57
2019-04-02 14:00:00 11.7 10 Noroeste 24 Oeste 0 -- -- 61
2019-04-02 13:00:00 9.8 8 Noroeste 17 Noroeste 0 -- -- 70
2019-04-02 12:00:00 9.5 5 Nordeste 15 Norte 0 -- -- 74
2019-04-02 11:00:00 7.4 5 Este 8 Este 0 -- -- 81
2019-04-02 10:00:00 6 4 Este 9 Este 0 -- -- 89
2019-04-02 09:00:00 4.7 5 Oeste 10 Noroeste 0 -- -- 95
2019-04-02 08:00:00 4.8 4 Oeste 13 Norte 0 -- -- 95
2019-04-02 07:00:00 4.1 8 Norte 10 Norte 0 -- -- 87
2019-04-02 06:00:00 5.1 5 Norte 7 Noroeste 0 -- -- 86
2019-04-02 05:00:00 5.2 3 Noroeste 13 Noroeste 0 -- -- 83
2019-04-02 04:00:00 5.5 4 Oeste 12 Noroeste 0 -- -- 76
2019-04-02 03:00:00 7.3 3 Norte 8 Noroeste 0 -- -- 69
2019-04-02 02:00:00 7.3 0 Calma 14 Norte 0 -- -- 67
2019-04-02 01:00:00 7.9 12 Norte 15 Norte 0 -- -- 65
2019-04-02 00:00:00 8.4 12 Norte 18 Norte 0 -- -- 63
2019-04-01 23:00:00 9 12 Nordeste 22 Nordeste 0 -- -- 61
2019-04-01 22:00:00 9.7 11 Nordeste 19 Nordeste 0 -- -- 57
2019-04-01 21:00:00 11.2 7 Nordeste 22 Nordeste 0 -- -- 52
2019-04-01 20:00:00 13.5 8 Norte 20 Norte 0 -- -- 49
2019-04-01 19:00:00 15 9 Norte 24 Nordeste 0 -- -- 48
2019-04-01 18:00:00 16.2 11 Nordeste 26 Norte 0 -- -- 45
2019-04-01 17:00:00 18.1 11 Norte 27 Norte 0 -- -- 38
2019-04-01 16:00:00 17.8 9 Nordeste 30 Nordeste 0 -- -- 34
2019-04-01 15:00:00 17.5 16 Este 28 Este 0 -- -- 32
2019-04-01 14:00:00 17.1 15 Nordeste 28 Este 0 -- -- 30
2019-04-01 13:00:00 15.6 12 Este 19 Nordeste 0 -- -- 39
2019-04-01 12:00:00 13.6 7 Este 13 Norte 0 -- -- 55
2019-04-01 11:00:00 12 5 Este 9 Este 0 -- -- 62
2019-04-01 10:00:00 9.9 5 Este 9 Este 0 -- -- 66
2019-04-01 09:00:00 8.1 3 Nordeste 8 Norte 0 -- -- 72
2019-04-01 08:00:00 7.8 0 Calma 8 Norte 0 -- -- 70
2019-04-01 07:00:00 8.1 5 Este 9 Sudeste 0 -- -- 69
2019-04-01 06:00:00 8.5 5 Este 6 Sudeste 0 -- -- 68
2019-04-01 05:00:00 9.1 0 Calma 6 Nordeste 0 -- -- 69
2019-04-01 04:00:00 9.3 0 Calma 8 Este 0 -- -- 67
2019-04-01 03:00:00 9.1 6 Nordeste 10 Norte 0 -- -- 70
2019-04-01 02:00:00 9.9 0 Calma 6 Este 0 -- -- 67
2019-04-01 01:00:00 10.7 3 Norte 10 Norte 0 -- -- 65
2019-04-01 00:00:00 11 4 Noroeste 13 Norte 0 -- -- 59
2019-03-31 23:00:00 11.5 7 Norte 14 Nordeste 0 -- -- 55
2019-03-31 22:00:00 12.1 11 Norte 23 Nordeste 0 -- -- 50
2019-03-31 21:00:00 12.9 16 Nordeste 24 Este 0 -- -- 49
2019-03-31 20:00:00 14.3 11 Nordeste 35 Nordeste 0 -- -- 43
2019-03-31 19:00:00 14.9 17 Nordeste 37 Nordeste 0 -- -- 42
2019-03-31 18:00:00 16.8 23 Nordeste 37 Nordeste 0 -- -- 39
2019-03-31 17:00:00 18.2 7 Este 24 Este 0 -- -- 32
2019-03-31 16:00:00 17.4 11 Este 32 Sudeste 0 -- -- 32
2019-03-31 15:00:00 17.1 10 Este 49 Nordeste 0 -- -- 38
2019-03-31 14:00:00 15.1 9 Nordeste 18 Norte 0 -- -- 42
2019-03-31 13:00:00 15.3 4 Nordeste 10 Nordeste 0 -- -- 48
2019-03-31 12:00:00 14.7 3 Este 8 Oeste 0 -- -- 57
2019-03-31 11:00:00 12.8 4 Sudeste 9 Sudeste 0 -- -- 55
2019-03-31 10:00:00 10.9 4 Sudeste 12 Sudeste 0 -- -- 58
2019-03-31 09:00:00 8.6 7 Sudeste 13 Sudeste 0 -- -- 64
2019-03-31 08:00:00 8.1 5 Este 8 Este 0 -- -- 68
2019-03-31 07:00:00 8.2 5 Nordeste 9 Este 0 -- -- 67
2019-03-31 06:00:00 8.6 5 Nordeste 8 Este 0 -- -- 66
2019-03-31 05:00:00 9.4 5 Este 13 Este 0 -- -- 62
2019-03-31 03:00:00 10.5 13 Sudeste 19 Sudeste 0 -- -- 58
2019-03-31 01:00:00 10.9 15 Sudeste 19 Sudeste 0 -- -- 58
2019-03-31 00:00:00 10.9 10 Sudeste 14 Sudeste 0 -- -- 58
2019-03-30 23:00:00 11 3 Nordeste 11 Norte 0 -- -- 61
2019-03-30 22:00:00 11.8 6 Sudeste 8 Sudeste 0 -- -- 56
2019-03-30 21:00:00 11.1 6 Nordeste 11 Nordeste 0 -- -- 58
2019-03-30 20:00:00 12 5 Nordeste 13 Nordeste 0 -- -- 55
2019-03-30 19:00:00 13.4 7 Sudeste 12 Sudeste 0 -- -- 52
2019-03-30 18:00:00 13.5 9 Sudeste 19 Sudeste 0 -- -- 50
2019-03-30 17:00:00 13.2 11 Sudeste 28 Sudeste 0 -- -- 53
2019-03-30 16:00:00 13 13 Sur 40 Sudeste 0 -- -- 51
2019-03-30 15:00:00 15 11 Sudeste 23 Sudoeste 0 -- -- 40
2019-03-30 14:00:00 16.1 10 Nordeste 18 Este 0 -- -- 40
2019-03-30 13:00:00 16.1 6 Sur 15 Noroeste 0 -- -- 33
2019-03-30 12:00:00 17 9 Sudoeste 17 Sur 0 -- -- 36
2019-03-30 11:00:00 15.2 4 Este 9 Norte 0 -- -- 55
2019-03-30 10:00:00 13.1 5 Sudeste 12 Sudeste 0 -- -- 58
2019-03-30 09:00:00 9.9 0 Calma 8 Sur 0 -- -- 67
2019-03-30 08:00:00 9 5 Sudeste 12 Sudeste 0 -- -- 67
2019-03-30 07:00:00 8.6 5 Sudeste 8 Este 0 -- -- 67
2019-03-30 06:00:00 8.2 3 Oeste 9 Este 0 -- -- 68
2019-03-30 05:00:00 8.4 9 Este 14 Sudeste 0 -- -- 68
2019-03-30 04:00:00 8.5 4 Este 8 Sudeste 0 -- -- 66
2019-03-30 03:00:00 9.2 0 Calma 4 Oeste 0 -- -- 64
2019-03-30 02:00:00 9.6 0 Calma 6 Sudeste 0 -- -- 62
2019-03-30 01:00:00 10 4 Este 7 Sudeste 0 -- -- 62
2019-03-30 00:00:00 10.7 0 Calma 6 Sudeste 0 -- -- 60
2019-03-29 23:00:00 11 4 Este 9 Este 0 -- -- 62
2019-03-29 22:00:00 11.7 4 Noroeste 10 Norte 0 -- -- 57
2019-03-29 21:00:00 12.3 8 Norte 18 Norte 0 -- -- 52
2019-03-29 20:00:00 13.8 9 Norte 19 Norte 0 -- -- 47
2019-03-29 19:00:00 16.5 5 Norte 13 Oeste 0 -- -- 38
2019-03-29 18:00:00 18.7 13 Oeste 27 Sudoeste 0 -- -- 28
2019-03-29 17:00:00 19.3 13 Oeste 27 Oeste 0 -- -- 30
2019-03-29 16:00:00 19.5 14 Oeste 29 Oeste 0 -- -- 29
2019-03-29 15:00:00 19.4 6 Noroeste 18 Noroeste 0 -- -- 31
2019-03-29 14:00:00 18.5 10 Sur 29 Este 0 -- -- 28
2019-03-29 13:00:00 17.7 9 Oeste 18 Oeste 0 -- -- 39
2019-03-29 12:00:00 15.7 10 Noroeste 16 Oeste 0 -- -- 37
2019-03-29 11:00:00 12.9 10 Noroeste 14 Noroeste 0 -- -- 52
2019-03-29 10:00:00 10.2 0 Calma 6 Oeste 0 -- -- 71
2019-03-29 09:00:00 8.5 0 Calma 8 Nordeste 0 -- -- 73
2019-03-29 08:00:00 5.7 0 Calma 10 Este 0 -- -- 87
2019-03-29 07:00:00 5.2 7 Este 8 Este 0 -- -- 84
2019-03-29 06:00:00 5.3 2 Este 5 Nordeste 0 -- -- 88
2019-03-29 05:00:00 5.4 0 Calma 6 Este 0 -- -- 87
2019-03-29 04:00:00 5.7 5 Nordeste 9 Nordeste 0 -- -- 86
2019-03-29 03:00:00 5.8 7 Nordeste 10 Este 0 -- -- 86
2019-03-29 02:00:00 6.6 6 Este 9 Nordeste 0 -- -- 82
2019-03-29 01:00:00 7.4 7 Nordeste 12 Este 0 -- -- 78
2019-03-29 00:00:00 7.9 7 Este 10 Este 0 -- -- 77
2019-03-28 23:00:00 8.9 7 Este 12 Sudeste 0 -- -- 71
2019-03-28 22:00:00 9.7 8 Este 13 Nordeste 0 -- -- 67
2019-03-28 21:00:00 10.5 10 Nordeste 18 Nordeste 0 -- -- 64
2019-03-28 20:00:00 12.4 12 Norte 21 Nordeste 0 -- -- 56
2019-03-28 19:00:00 14.6 10 Nordeste 22 Norte 0 -- -- 49
2019-03-28 18:00:00 16.2 9 Norte 26 Nordeste 0 -- -- 43
2019-03-28 17:00:00 17.4 11 Nordeste 24 Nordeste 0 -- -- 39
2019-03-28 16:00:00 18.3 11 Nordeste 30 Nordeste 0 -- -- 37
2019-03-28 15:00:00 18.7 13 Nordeste 26 Nordeste 0 -- -- 34
2019-03-28 14:00:00 18.3 11 Nordeste 26 Nordeste 0 -- -- 33
2019-03-28 13:00:00 17.1 9 Nordeste 24 Nordeste 0 -- -- 36
2019-03-28 12:00:00 15.9 10 Nordeste 22 Nordeste 0 -- -- 39
2019-03-28 11:00:00 12.6 4 Sur 13 Nordeste 0 -- -- 46
2019-03-28 10:00:00 11.5 4 Nordeste 10 Este 0 -- -- 52
2019-03-28 09:00:00 8.7 0 Calma 6 Este 0 -- -- 57
2019-03-28 08:00:00 6.2 0 Calma 7 Norte 0 -- -- 61
2019-03-28 07:00:00 5.6 2 Nordeste 8 Nordeste 0 -- -- 61
2019-03-28 06:00:00 6.2 3 Norte 8 Norte 0 -- -- 58
2019-03-28 05:00:00 6.3 5 Nordeste 8 Nordeste 0 -- -- 64
2019-03-28 04:00:00 6.8 5 Este 10 Sudeste 0 -- -- 63
2019-03-28 03:00:00 6.5 7 Sudeste 13 Nordeste 0 -- -- 65
2019-03-28 02:00:00 6.4 3 Sudoeste 21 Norte 0 -- -- 63
2019-03-28 01:00:00 7.1 9 Norte 18 Norte 0 -- -- 65
2019-03-28 00:00:00 7.8 6 Este 9 Este 0 -- -- 69
2019-03-27 23:00:00 8 2 Este 7 Este 0 -- -- 67
2019-03-27 22:00:00 8.3 4 Nordeste 17 Nordeste 0 -- -- 64
2019-03-27 21:00:00 9.3 13 Norte 22 Nordeste 0 -- -- 63
2019-03-27 20:00:00 10.7 14 Nordeste 20 Nordeste 0 -- -- 58
2019-03-27 19:00:00 13.3 12 Nordeste 27 Nordeste 0 -- -- 50
2019-03-27 18:00:00 14.7 22 Nordeste 34 Nordeste 0 -- -- 46
2019-03-27 17:00:00 16.7 14 Nordeste 30 Nordeste 0 -- -- 41
2019-03-27 16:00:00 17.8 15 Nordeste 35 Nordeste 0 -- -- 37
2019-03-27 15:00:00 18.5 13 Nordeste 34 Nordeste 0 -- -- 30
2019-03-27 14:00:00 18.2 12 Nordeste 25 Nordeste 0 -- -- 30
2019-03-27 13:00:00 16.7 17 Nordeste 27 Nordeste 0 -- -- 31
2019-03-27 12:00:00 14.9 5 Este 14 Norte 0 -- -- 37
2019-03-27 11:00:00 12 7 Noroeste 15 Oeste 0 -- -- 42
2019-03-27 10:00:00 9.7 7 Noroeste 13 Norte 0 -- -- 49
2019-03-27 09:00:00 7 6 Este 12 Nordeste 0 -- -- 61
2019-03-27 08:00:00 4.7 6 Nordeste 9 Nordeste 0 -- -- 66
2019-03-27 07:00:00 3.6 0 Calma 9 Este 0 -- -- 71
2019-03-27 06:00:00 3.9 4 Este 14 Sudeste 0 -- -- 71
2019-03-27 05:00:00 4 7 Este 12 Este 0 -- -- 74
2019-03-27 04:00:00 4.1 5 Nordeste 12 Norte 0 -- -- 75
2019-03-27 03:00:00 4.4 9 Norte 13 Norte 0 -- -- 76
2019-03-27 02:00:00 4.7 10 Norte 12 Norte 0 -- -- 78
2019-03-27 01:00:00 5 6 Nordeste 9 Nordeste 0 -- -- 78
2019-03-27 00:00:00 5.8 6 Este 8 Este 0 -- -- 75
2019-03-26 23:00:00 6.4 0 Calma 12 Este 0 -- -- 72
2019-03-26 22:00:00 7.4 7 Este 14 Norte 0 -- -- 68
2019-03-26 21:00:00 8.2 9 Norte 20 Norte 0 -- -- 66
2019-03-26 20:00:00 9.7 14 Norte 28 Nordeste 0 -- -- 62
2019-03-26 19:00:00 12.5 11 Norte 30 Norte 0 -- -- 53
2019-03-26 18:00:00 14 15 Nordeste 30 Nordeste 0 -- -- 49
2019-03-26 17:00:00 16 12 Nordeste 30 Este 0 -- -- 42
2019-03-26 16:00:00 16.5 15 Nordeste 34 Nordeste 0 -- -- 42
2019-03-26 15:00:00 16.2 20 Nordeste 36 Este 0 -- -- 41
2019-03-26 14:00:00 15.4 16 Nordeste 35 Nordeste 0 -- -- 42
2019-03-26 13:00:00 14.4 15 Nordeste 30 Nordeste 0 -- -- 47
2019-03-26 12:00:00 12.2 9 Nordeste 26 Este 0 -- -- 51
2019-03-26 11:00:00 10.4 16 Nordeste 36 Nordeste 0 -- -- 56
2019-03-26 10:00:00 8.5 20 Nordeste 37 Nordeste 0 -- -- 62
2019-03-26 09:00:00 7 18 Nordeste 27 Nordeste 0 -- -- 67
2019-03-26 08:00:00 4 11 Este 28 Este 0 -- -- 78
2019-03-26 07:00:00 3.4 20 Este 34 Nordeste 0 -- -- 78
2019-03-26 06:00:00 3.3 12 Este 30 Nordeste 0 -- -- 78
2019-03-26 05:00:00 3.7 19 Nordeste 33 Nordeste 0 -- -- 79
2019-03-26 04:00:00 3.7 15 Nordeste 45 Este 0 -- -- 80
2019-03-26 03:00:00 4.3 21 Nordeste 41 Nordeste 0 -- -- 79
2019-03-26 02:00:00 4.3 17 Nordeste 26 Nordeste 0 -- -- 78
2019-03-26 01:00:00 4.7 3 Este 24 Este 0 -- -- 76
2019-03-26 00:00:00 5.1 15 Nordeste 23 Nordeste 0 -- -- 77
2019-03-25 23:00:00 6.3 14 Nordeste 39 Nordeste 0 -- -- 74
2019-03-25 22:00:00 7.3 24 Nordeste 42 Nordeste 0 -- -- 72
2019-03-25 21:00:00 7.5 19 Nordeste 37 Nordeste 0 -- -- 76
2019-03-25 20:00:00 8.6 17 Nordeste 43 Nordeste 0 -- -- 72
2019-03-25 19:00:00 10 23 Nordeste 47 Nordeste 0 -- -- 69
2019-03-25 18:00:00 11.8 19 Nordeste 35 Nordeste 0 -- -- 64
2019-03-25 17:00:00 14.1 22 Nordeste 41 Este 0 -- -- 56
2019-03-25 16:00:00 15.7 22 Nordeste 39 Nordeste 0 -- -- 51
2019-03-25 15:00:00 15.8 18 Nordeste 39 Nordeste 0 -- -- 50
2019-03-25 14:00:00 15.2 26 Nordeste 46 Nordeste 0 -- -- 51
2019-03-25 13:00:00 14.1 20 Nordeste 37 Nordeste 0 -- -- 54
2019-03-25 12:00:00 12.7 14 Nordeste 27 Nordeste 0 -- -- 57
2019-03-25 11:00:00 11.6 17 Nordeste 25 Este 0 -- -- 61
2019-03-25 10:00:00 9.1 15 Este 23 Este 0 -- -- 71
2019-03-25 09:00:00 7.3 9 Este 15 Sudeste 0 -- -- 79
2019-03-25 08:00:00 5.2 12 Sudeste 15 Sudeste 0 -- -- 86
2019-03-25 07:00:00 4.8 7 Este 13 Este 0 -- -- 87
2019-03-25 06:00:00 4.5 9 Nordeste 16 Norte 0 -- -- 90
2019-03-25 05:00:00 4.5 9 Nordeste 16 Norte 0 -- -- 88
2019-03-25 04:00:00 5.4 9 Norte 16 Norte 0 -- -- 84
2019-03-25 03:00:00 6.2 7 Norte 13 Norte 0 -- -- 74
2019-03-25 02:00:00 6.5 7 Nordeste 10 Nordeste 0 -- -- 71
2019-03-25 01:00:00 7.9 8 Sudeste 12 Sudeste 0 -- -- 69
2019-03-25 00:00:00 7.9 6 Este 20 Este 0 -- -- 65
2019-03-24 23:00:00 8.9 10 Este 22 Este 0 -- -- 67
2019-03-24 22:00:00 9 17 Nordeste 33 Este 0 -- -- 66
2019-03-24 21:00:00 9.6 23 Nordeste 39 Nordeste 0 -- -- 65
2019-03-24 20:00:00 10.6 20 Nordeste 39 Nordeste 0 -- -- 64
2019-03-24 19:00:00 13 22 Nordeste 32 Nordeste 0 -- -- 60
2019-03-24 18:00:00 16.1 13 Norte 27 Nordeste 0 -- -- 53
2019-03-24 17:00:00 18.3 16 Nordeste 32 Este 0 -- -- 44
2019-03-24 16:00:00 19.4 18 Nordeste 33 Nordeste 0 -- -- 38
2019-03-24 15:00:00 19.9 15 Nordeste 31 Nordeste 0 -- -- 39
2019-03-24 14:00:00 19.4 13 Nordeste 26 Nordeste 0 -- -- 41
2019-03-24 13:00:00 18.3 9 Nordeste 21 Nordeste 0 -- -- 47
2019-03-24 12:00:00 16.8 8 Nordeste 15 Noroeste 0 -- -- 47
2019-03-24 11:00:00 14.4 6 Norte 15 Norte 0 -- -- 54
2019-03-24 10:00:00 12.8 6 Nordeste 12 Norte 0 -- -- 53
2019-03-24 09:00:00 10.2 5 Nordeste 10 Este 0 -- -- 62
2019-03-24 08:00:00 8.1 8 Este 12 Este 0 -- -- 61
2019-03-24 07:00:00 7.7 5 Este 9 Este 0 -- -- 62
2019-03-24 06:00:00 8 6 Este 10 Este 0 -- -- 61
2019-03-24 05:00:00 8.2 6 Este 9 Nordeste 0 -- -- 63
2019-03-24 04:00:00 8.6 6 Este 10 Este 0 -- -- 61
2019-03-24 03:00:00 9.8 6 Sudeste 9 Sudeste 0 -- -- 57
2019-03-24 02:00:00 10.2 7 Este 13 Sudeste 0 -- -- 56
2019-03-24 01:00:00 10.2 5 Este 9 Nordeste 0 -- -- 56
2019-03-24 00:00:00 11 6 Este 10 Sudeste 0 -- -- 53
2019-03-23 23:00:00 10.9 5 Nordeste 13 Norte 0 -- -- 48
2019-03-23 22:00:00 11.4 10 Norte 17 Nordeste 0 -- -- 47
2019-03-23 21:00:00 12.3 10 Nordeste 22 Nordeste 0 -- -- 47
2019-03-23 20:00:00 13.3 13 Nordeste 28 Norte 0 -- -- 46
2019-03-23 19:00:00 15.4 9 Nordeste 26 Nordeste 0 -- -- 41
2019-03-23 18:00:00 17.5 4 Norte 31 Norte 0 -- -- 39
2019-03-23 17:00:00 19.7 8 Norte 15 Norte 0 -- -- 28
2019-03-23 16:00:00 19.8 6 Nordeste 19 Este 0 -- -- 31
2019-03-23 15:00:00 19.8 8 Nordeste 18 Este 0 -- -- 31
2019-03-23 14:00:00 18.9 6 Noroeste 23 Noroeste 0 -- -- 32
2019-03-23 13:00:00 17.2 8 Este 13 Este 0 -- -- 39
2019-03-23 12:00:00 16.1 4 Sudeste 10 Sudoeste 0 -- -- 49
2019-03-23 11:00:00 14.1 5 Oeste 10 Sudoeste 0 -- -- 53
2019-03-23 10:00:00 11.1 4 Sudeste 13 Sudeste 0 -- -- 60
2019-03-23 09:00:00 8.8 0 Calma 6 Este 0 -- -- 65
2019-03-23 08:00:00 5.8 0 Calma 8 Norte 0 -- -- 74
2019-03-23 07:00:00 5.8 5 Nordeste 9 Este 0 -- -- 74
2019-03-23 06:00:00 6 0 Calma 7 Oeste 0 -- -- 75
2019-03-23 05:00:00 6.1 0 Calma 5 Sudeste 0 -- -- 76
2019-03-23 04:00:00 6.4 3 Este 6 Este 0 -- -- 74
2019-03-23 03:00:00 6.6 2 Nordeste 6 Este 0 -- -- 72
2019-03-23 02:00:00 6.8 3 Nordeste 8 Nordeste 0 -- -- 73
2019-03-23 01:00:00 7.2 6 Nordeste 13 Este 0 -- -- 74
2019-03-23 00:00:00 8.7 6 Este 19 Sudeste 0 -- -- 69
2019-03-22 23:00:00 9.6 7 Sudeste 13 Sudeste 0 -- -- 66
2019-03-22 22:00:00 9.8 6 Nordeste 12 Nordeste 0 -- -- 64
2019-03-22 21:00:00 10.6 9 Nordeste 18 Nordeste 0 -- -- 61
2019-03-22 20:00:00 11.8 9 Norte 18 Norte 0 -- -- 58
2019-03-22 19:00:00 13.8 13 Norte 27 Norte 0 -- -- 52
2019-03-22 18:00:00 17.7 9 Noroeste 23 Norte 0 -- -- 41
2019-03-22 17:00:00 17.8 12 Sudoeste 22 Oeste 0 -- -- 33
2019-03-22 16:00:00 17.9 12 Oeste 28 Oeste 0 -- -- 34
2019-03-22 15:00:00 17.8 7 Oeste 17 Noroeste 0 -- -- 36
2019-03-22 14:00:00 16.7 6 Oeste 33 Oeste 0 -- -- 36
2019-03-22 13:00:00 15.8 10 Oeste 30 Oeste 0 -- -- 37
2019-03-22 12:00:00 14.9 15 Oeste 25 Oeste 0 -- -- 37
2019-03-22 11:00:00 13.5 3 Sur 12 Oeste 0 -- -- 56
2019-03-22 10:00:00 10.2 5 Sudoeste 12 Sudoeste 0 -- -- 56
2019-03-22 09:00:00 8.8 4 Sur 11 Sudeste 0 -- -- 55
2019-03-22 08:00:00 6.5 5 Sudeste 11 Sudeste 0 -- -- 60
2019-03-22 07:00:00 6.5 4 Sur 14 Sur 0 -- -- 60
2019-03-22 06:00:00 7.2 7 Sudeste 14 Sudeste 0 -- -- 56
2019-03-22 05:00:00 7.1 5 Sur 12 Sudeste 0 -- -- 58
2019-03-22 04:00:00 6.7 0 Calma 8 Sudoeste 0 -- -- 66
2019-03-22 03:00:00 6.7 2 Noroeste 6 Noroeste 0 -- -- 68
2019-03-22 02:00:00 5.9 2 Nordeste 10 Noroeste 0 -- -- 84
2019-03-22 01:00:00 6.3 4 Noroeste 7 Noroeste 0 -- -- 80
2019-03-22 00:00:00 7.2 3 Sudeste 18 Sudeste 0 -- -- 77
2019-03-21 23:00:00 7.4 8 Sudeste 13 Sudeste 0 -- -- 78
2019-03-21 22:00:00 7.6 6 Este 9 Este 0 -- -- 79
2019-03-21 21:00:00 8.7 2 Este 13 Norte 0 -- -- 73
2019-03-21 20:00:00 9.8 9 Norte 13 Norte 0 -- -- 68
2019-03-21 19:00:00 13.1 6 Noroeste 14 Norte 0 -- -- 58
2019-03-21 18:00:00 14.9 8 Norte 16 Norte 0 -- -- 48
2019-03-21 17:00:00 16.1 8 Norte 18 Noroeste 0 -- -- 42
2019-03-21 16:00:00 15.8 7 Nordeste 20 Este 0 -- -- 40
2019-03-21 15:00:00 15.6 10 Nordeste 20 Nordeste 0 -- -- 40
2019-03-21 14:00:00 14.4 11 Este 23 Nordeste 0 -- -- 44
2019-03-21 13:00:00 12.7 12 Este 25 Este 0 -- -- 49
2019-03-21 12:00:00 10.9 7 Este 15 Este 0 -- -- 60
2019-03-21 11:00:00 9.7 4 Este 11 Este 0 -- -- 67
2019-03-21 10:00:00 7.1 7 Nordeste 12 Este 0 -- -- 73
2019-03-21 09:00:00 5.3 6 Nordeste 13 Este 0 -- -- 83
2019-03-21 08:00:00 3.4 5 Sudeste 9 Este 0 -- -- 87
2019-03-21 07:00:00 3.4 3 Este 9 Este 0 -- -- 87
2019-03-21 06:00:00 3.8 3 Sudeste 6 Sudeste 0 -- -- 85
2019-03-21 05:00:00 3.9 0 Calma 5 Norte 0 -- -- 85
2019-03-21 04:00:00 3.8 0 Calma 9 Nordeste 0 -- -- 87
2019-03-21 03:00:00 4.1 4 Este 8 Este 0 -- -- 88
2019-03-21 02:00:00 3.9 5 Este 10 Nordeste 0 -- -- 87
2019-03-21 01:00:00 4.2 7 Nordeste 13 Nordeste 0 -- -- 87
2019-03-21 00:00:00 4.3 7 Nordeste 14 Nordeste 0 -- -- 89